EBCIEGGP

Guest
Details From EBCI - Brussels South - Charleroi
To EGGP - Liverpool John Lennon
Flight Number -
Tags Generated
Created
Modified
Stats Distance 321 nm / 594 km
Max Altitude 0 ft / 0 m
Waypoints 3
Social Downloads 2
Likes 0
Share VATSIM

Download

Looking for another format? Having issues loading an existing format? Contact us
Advertisement - Login to hide

Notes

Generated

Route

EBCI SANBA EGGP

ID Type Via Altitude Latitude Longitude Leg Dist Tot Dist Heading (true) Name
O EBCI APT - 0 ft / 0 m 50.45539˚ 4.43664˚ - 0 nm - -
SANBA FIX - 0 ft / 0 m 53.13945˚ -2.33417˚ 298 nm 298 nm 305° / 300° -
O EGGP APT - 0 ft / 0 m 53.33288˚ -2.86602˚ 22 nm 320 nm 301° / 301° -

Altitude Profile

Advertisement - Login to hide

Weather


0- 5 10 15 20 25 30 35+ Temperature / ° C

Clouds and Precipitation
Forecast for 2017-12-15 06:00 UTC. Updated an hour ago

Ground ~20,000 ft ~40,000 ft Winds

EBCI

Details ICAO EBCI (CRL)
Name Brussels South - Charleroi
Region Belgium
Timezone Europe/Brussels (UTC+1.0)
Stats Elevation 614 ft / 187 m (AMSL)
Location 50.459947° 4.453125°
Runways 1
Magnetic Variation 1.134° E

METAR

EBCI 150420Z 22009KT 9999 BKN009 03/01 Q0992 NOSIG

Decode

TAF

TAF EBCI 142310Z 1500/1606 23010KT 9999 SCT010 SCT035 TEMPO 1500/1502 BKN007 PROB40 TEMPO 1504/1506 2500 SHSNRA BKN006 SCT011CB PROB40 TEMPO 1513/1517 2500 SHSNRA BKN006 SCT011CB PROB30 TEMPO 1522/1602 2500 BR BKN003

Decode

Departure Runways

ID Width Length Bearing (true) Bearing (mag) Surface Threshold Offset Overrun Length
07 148 ft / 45 m 8,374 ft / 2,552 m 65.53° 64.40° Asphalt 1,476 ft / 450 m 0 ft / 0 m
25 148 ft / 45 m 8,374 ft / 2,552 m 245.55° 244.42° Asphalt 0 ft / 0 m 0 ft / 0 m

EGGP

Details ICAO EGGP (LPL)
Name Liverpool
Region United Kingdom
Timezone Europe/London (UTC+0.0)
Stats Elevation 80 ft / 24 m (AMSL)
Location 53.333632° -2.849769°
Runways 1
Magnetic Variation 1.674° W

METAR

EGGP 150420Z 33010KT CAVOK 03/02 Q0993

Decode

TAF

TAF AMD EGGP 150225Z 1502/1524 VRB03KT 9999 SCT035 BECMG 1502/1504 32012KT TEMPO 1502/1504 32018G30KT 6000 SHRA BKN010 PROB30 TEMPO 1509/1517 35015G25KT

Decode

Destination Runways

ID Width Length Bearing (true) Bearing (mag) Surface Threshold Offset Overrun Length
09 151 ft / 46 m 7,466 ft / 2,276 m 85.59° 87.26° Asphalt 180 ft / 55 m 0 ft / 0 m
27 151 ft / 46 m 7,466 ft / 2,276 m 265.61° 267.28° Asphalt 0 ft / 0 m 0 ft / 0 m

Approach Navaids

Runway Type Ident Frequency Range Bearing (true) Bearing (mag) Slope Elevation
09 Localiser ILVR 111.75 MHz 18 nm / 33 km 85.61° 87.29° - 77 ft / 23 m (AMSL)
09 Glidescope ILVR 111.75 MHz 10 nm / 19 km 85.60° 87.27° 3.00° 80 ft / 24 m (AMSL)
09 DME ILVR 111.75 MHz 18 nm / 33 km - - - 88 ft / 27 m (AMSL)
27 Localiser ILQ 111.75 MHz 18 nm / 33 km 265.05° 266.72° - 55 ft / 17 m (AMSL)
27 Glidescope ILQ 111.75 MHz 10 nm / 19 km 265.60° 267.27° 3.00° 80 ft / 24 m (AMSL)
27 DME ILQ 111.75 MHz 18 nm / 33 km - - - 88 ft / 27 m (AMSL)